sensor_id;sensor_type;location;lat;lon;timestamp;pressure;altitude;pressure_sealevel;temperature;humidity
6218;BME280;3142;48.206;11.550;2023-05-23T00:01:40;95429.44;;;20.80;60.10
6218;BME280;3142;48.206;11.550;2023-05-23T00:04:07;95427.09;;;20.73;59.94
6218;BME280;3142;48.206;11.550;2023-05-23T00:06:34;95420.44;;;20.65;60.25
6218;BME280;3142;48.206;11.550;2023-05-23T00:09:03;95413.81;;;20.58;60.56
6218;BME280;3142;48.206;11.550;2023-05-23T00:11:30;95428.97;;;20.52;60.86
6218;BME280;3142;48.206;11.550;2023-05-23T00:13:57;95429.22;;;20.56;60.74
6218;BME280;3142;48.206;11.550;2023-05-23T00:16:25;95429.50;;;20.54;60.99
6218;BME280;3142;48.206;11.550;2023-05-23T00:18:51;95428.19;;;20.52;60.93
6218;BME280;3142;48.206;11.550;2023-05-23T00:21:18;95429.78;;;20.53;60.86
6218;BME280;3142;48.206;11.550;2023-05-23T00:23:44;95431.63;;;20.52;60.79
6218;BME280;3142;48.206;11.550;2023-05-23T00:26:11;95431.63;;;20.52;60.72
6218;BME280;3142;48.206;11.550;2023-05-23T00:28:38;95435.63;;;20.50;60.63
6218;BME280;3142;48.206;11.550;2023-05-23T00:31:05;95426.06;;;20.49;60.27
6218;BME280;3142;48.206;11.550;2023-05-23T00:33:31;95423.44;;;20.44;60.47
6218;BME280;3142;48.206;11.550;2023-05-23T00:35:58;95428.75;;;20.44;60.47
6218;BME280;3142;48.206;11.550;2023-05-23T00:38:24;95429.22;;;20.40;60.36
6218;BME280;3142;48.206;11.550;2023-05-23T00:40:52;95426.84;;;20.39;60.51
6218;BME280;3142;48.206;11.550;2023-05-23T00:43:18;95422.88;;;20.36;60.50
6218;BME280;3142;48.206;11.550;2023-05-23T00:45:48;95420.19;;;20.36;60.45
6218;BME280;3142;48.206;11.550;2023-05-23T00:48:14;95420.47;;;20.35;60.46
6218;BME280;3142;48.206;11.550;2023-05-23T00:50:41;95431.38;;;20.33;60.20
6218;BME280;3142;48.206;11.550;2023-05-23T00:53:08;95426.06;;;20.33;60.37
6218;BME280;3142;48.206;11.550;2023-05-23T00:55:34;95425.81;;;20.30;60.72
6218;BME280;3142;48.206;11.550;2023-05-23T00:58:01;95431.66;;;20.32;60.25
6218;BME280;3142;48.206;11.550;2023-05-23T01:00:27;95430.56;;;20.33;60.20
6218;BME280;3142;48.206;11.550;2023-05-23T01:02:55;95430.06;;;20.31;60.14
6218;BME280;3142;48.206;11.550;2023-05-23T01:05:22;95430.03;;;20.26;60.40
6218;BME280;3142;48.206;11.550;2023-05-23T01:07:50;95431.34;;;20.28;60.50
6218;BME280;3142;48.206;11.550;2023-05-23T01:10:18;95430.84;;;20.26;60.28
6218;BME280;3142;48.206;11.550;2023-05-23T01:12:53;95435.38;;;20.21;60.71
6218;BME280;3142;48.206;11.550;2023-05-23T01:15:28;95435.63;;;20.19;60.94
6218;BME280;3142;48.206;11.550;2023-05-23T01:18:03;95439.88;;;20.20;61.03
6218;BME280;3142;48.206;11.550;2023-05-23T01:20:35;95431.38;;;20.18;60.51
6218;BME280;3142;48.206;11.550;2023-05-23T01:23:23;95443.34;;;20.16;60.70
6218;BME280;3142;48.206;11.550;2023-05-23T01:26:03;95439.06;;;20.15;60.95
6218;BME280;3142;48.206;11.550;2023-05-23T01:28:36;95440.94;;;20.09;60.88
6218;BME280;3142;48.206;11.550;2023-05-23T01:31:07;95430.84;;;20.06;60.97
6218;BME280;3142;48.206;11.550;2023-05-23T01:33:36;95437.75;;;20.07;61.30
6218;BME280;3142;48.206;11.550;2023-05-23T01:36:03;95440.97;;;20.04;61.08
6218;BME280;3142;48.206;11.550;2023-05-23T01:38:30;95438.31;;;20.04;61.11
6218;BME280;3142;48.206;11.550;2023-05-23T01:40:57;95443.09;;;20.02;61.10
6218;BME280;3142;48.206;11.550;2023-05-23T01:43:23;95446.25;;;19.99;61.49
6218;BME280;3142;48.206;11.550;2023-05-23T01:45:52;95442.78;;;19.98;61.74
6218;BME280;3142;48.206;11.550;2023-05-23T01:48:20;95451.56;;;19.94;62.05
6218;BME280;3142;48.206;11.550;2023-05-23T01:50:49;95454.22;;;19.94;61.56
6218;BME280;3142;48.206;11.550;2023-05-23T01:53:19;95458.75;;;19.88;61.97
6218;BME280;3142;48.206;11.550;2023-05-23T01:55:46;95460.84;;;19.86;62.15
6218;BME280;3142;48.206;11.550;2023-05-23T01:58:13;95458.72;;;19.83;62.40
6218;BME280;3142;48.206;11.550;2023-05-23T02:00:40;95463.78;;;19.79;62.30
6218;BME280;3142;48.206;11.550;2023-05-23T02:03:08;95470.41;;;19.77;62.27
6218;BME280;3142;48.206;11.550;2023-05-23T02:05:34;95463.78;;;19.74;62.29
6218;BME280;3142;48.206;11.550;2023-05-23T02:08:01;95465.38;;;19.75;62.71
6218;BME280;3142;48.206;11.550;2023-05-23T02:10:27;95469.59;;;19.76;62.29
6218;BME280;3142;48.206;11.550;2023-05-23T02:12:54;95469.31;;;19.73;62.44
6218;BME280;3142;48.206;11.550;2023-05-23T02:15:20;95453.91;;;19.70;62.69
6218;BME280;3142;48.206;11.550;2023-05-23T02:17:46;95463.75;;;19.69;63.43
6218;BME280;3142;48.206;11.550;2023-05-23T02:20:15;95460.28;;;19.69;62.72
6218;BME280;3142;48.206;11.550;2023-05-23T02:22:43;95463.22;;;19.67;63.25
6218;BME280;3142;48.206;11.550;2023-05-23T02:25:09;95463.75;;;19.64;63.14
6218;BME280;3142;48.206;11.550;2023-05-23T02:27:35;95465.34;;;19.65;63.03
6218;BME280;3142;48.206;11.550;2023-05-23T02:30:02;95464.00;;;19.63;63.69
6218;BME280;3142;48.206;11.550;2023-05-23T02:32:29;95465.88;;;19.62;63.55
6218;BME280;3142;48.206;11.550;2023-05-23T02:34:56;95473.84;;;19.62;63.55
6218;BME280;3142;48.206;11.550;2023-05-23T02:37:25;95471.94;;;19.58;63.73
6218;BME280;3142;48.206;11.550;2023-05-23T02:39:51;95478.56;;;19.55;64.10
6218;BME280;3142;48.206;11.550;2023-05-23T02:42:17;95470.31;;;19.51;64.35
6218;BME280;3142;48.206;11.550;2023-05-23T02:44:44;95470.84;;;19.48;64.33
6218;BME280;3142;48.206;11.550;2023-05-23T02:47:10;95471.09;;;19.47;64.06
6218;BME280;3142;48.206;11.550;2023-05-23T02:49:37;95484.06;;;19.43;64.07
6218;BME280;3142;48.206;11.550;2023-05-23T02:52:03;95480.34;;;19.39;64.45
6218;BME280;3142;48.206;11.550;2023-05-23T02:54:31;95475.31;;;19.38;65.13
6218;BME280;3142;48.206;11.550;2023-05-23T02:56:57;95478.22;;;19.36;65.21
6218;BME280;3142;48.206;11.550;2023-05-23T02:59:25;95478.50;;;19.40;64.87
6218;BME280;3142;48.206;11.550;2023-05-23T03:01:51;95480.34;;;19.34;64.67
6218;BME280;3142;48.206;11.550;2023-05-23T03:04:18;95479.25;;;19.30;64.96
6218;BME280;3142;48.206;11.550;2023-05-23T03:06:45;95478.75;;;19.33;65.44
6218;BME280;3142;48.206;11.550;2023-05-23T03:09:14;95476.06;;;19.28;65.49
6218;BME280;3142;48.206;11.550;2023-05-23T03:11:42;95481.09;;;19.24;65.61
6218;BME280;3142;48.206;11.550;2023-05-23T03:14:08;95490.66;;;19.26;65.69
6218;BME280;3142;48.206;11.550;2023-05-23T03:16:35;95478.44;;;19.24;65.85
6218;BME280;3142;48.206;11.550;2023-05-23T03:19:01;95482.97;;;19.24;65.67
6218;BME280;3142;48.206;11.550;2023-05-23T03:21:28;95479.50;;;19.23;66.22
6218;BME280;3142;48.206;11.550;2023-05-23T03:23:55;95486.16;;;19.26;66.25
6218;BME280;3142;48.206;11.550;2023-05-23T03:26:22;95485.88;;;19.22;65.80
6218;BME280;3142;48.206;11.550;2023-05-23T03:28:50;95485.88;;;19.22;66.38
6218;BME280;3142;48.206;11.550;2023-05-23T03:31:16;95482.41;;;19.22;66.30
6218;BME280;3142;48.206;11.550;2023-05-23T03:33:43;95489.00;;;19.14;66.25
6218;BME280;3142;48.206;11.550;2023-05-23T03:36:09;95485.03;;;19.17;66.74
6218;BME280;3142;48.206;11.550;2023-05-23T03:38:36;95486.34;;;19.14;67.04
6218;BME280;3142;48.206;11.550;2023-05-23T03:41:02;95490.31;;;19.12;67.02
6218;BME280;3142;48.206;11.550;2023-05-23T03:43:28;95492.97;;;19.07;66.88
6218;BME280;3142;48.206;11.550;2023-05-23T03:45:57;95492.41;;;19.05;67.33
6218;BME280;3142;48.206;11.550;2023-05-23T03:48:24;95492.13;;;19.01;67.07
6218;BME280;3142;48.206;11.550;2023-05-23T03:50:50;95499.53;;;18.99;66.91
6218;BME280;3142;48.206;11.550;2023-05-23T03:53:16;95498.19;;;18.91;67.54
6218;BME280;3142;48.206;11.550;2023-05-23T03:55:43;95502.38;;;18.87;67.78
6218;BME280;3142;48.206;11.550;2023-05-23T03:58:09;95504.50;;;18.85;68.54
6218;BME280;3142;48.206;11.550;2023-05-23T04:00:36;95493.91;;;18.85;68.26
6218;BME280;3142;48.206;11.550;2023-05-23T04:03:03;95493.66;;;18.87;68.64
6218;BME280;3142;48.206;11.550;2023-05-23T04:05:30;95501.06;;;18.85;68.51
6218;BME280;3142;48.206;11.550;2023-05-23T04:07:57;95497.88;;;18.83;69.05
6218;BME280;3142;48.206;11.550;2023-05-23T04:10:25;95506.88;;;18.82;68.57
6218;BME280;3142;48.206;11.550;2023-05-23T04:12:51;95505.03;;;18.82;68.96
6218;BME280;3142;48.206;11.550;2023-05-23T04:15:18;95506.88;;;18.82;68.73
6218;BME280;3142;48.206;11.550;2023-05-23T04:17:45;95509.00;;;18.80;68.79
6218;BME280;3142;48.206;11.550;2023-05-23T04:20:13;95511.91;;;18.78;68.98
6218;BME280;3142;48.206;11.550;2023-05-23T04:22:39;95516.44;;;18.83;69.17
6218;BME280;3142;48.206;11.550;2023-05-23T04:25:06;95525.97;;;18.84;69.15
6218;BME280;3142;48.206;11.550;2023-05-23T04:27:33;95522.78;;;18.82;69.54
6218;BME280;3142;48.206;11.550;2023-05-23T04:30:00;95525.44;;;18.82;69.48
6218;BME280;3142;48.206;11.550;2023-05-23T04:32:26;95516.91;;;18.75;69.74
6218;BME280;3142;48.206;11.550;2023-05-23T04:34:53;95524.56;;;18.71;69.73
6218;BME280;3142;48.206;11.550;2023-05-23T04:37:22;95519.53;;;18.70;70.12
6218;BME280;3142;48.206;11.550;2023-05-23T04:39:50;95528.28;;;18.70;70.54
6218;BME280;3142;48.206;11.550;2023-05-23T04:42:17;95529.88;;;18.76;70.05
6218;BME280;3142;48.206;11.550;2023-05-23T04:44:48;95539.22;;;18.79;69.70
6218;BME280;3142;48.206;11.550;2023-05-23T04:47:15;95532.31;;;18.78;70.23
6218;BME280;3142;48.206;11.550;2023-05-23T04:49:41;95531.28;;;18.84;70.26
6218;BME280;3142;48.206;11.550;2023-05-23T04:52:08;95536.28;;;18.80;69.83
6218;BME280;3142;48.206;11.550;2023-05-23T04:54:35;95530.75;;;18.82;69.76
6218;BME280;3142;48.206;11.550;2023-05-23T04:57:04;95539.78;;;18.86;70.31
6218;BME280;3142;48.206;11.550;2023-05-23T04:59:31;95542.44;;;18.91;69.84
6218;BME280;3142;48.206;11.550;2023-05-23T05:01:57;95539.25;;;18.89;70.18
6218;BME280;3142;48.206;11.550;2023-05-23T05:04:23;95535.53;;;18.90;70.27
6218;BME280;3142;48.206;11.550;2023-05-23T05:06:50;95540.06;;;18.89;70.03
6218;BME280;3142;48.206;11.550;2023-05-23T05:09:17;95539.78;;;18.91;70.30
6218;BME280;3142;48.206;11.550;2023-05-23T05:11:45;95548.63;;;19.02;70.13
6218;BME280;3142;48.206;11.550;2023-05-23T05:14:11;95544.09;;;19.02;70.30
6218;BME280;3142;48.206;11.550;2023-05-23T05:16:38;95544.66;;;19.04;70.23
6218;BME280;3142;48.206;11.550;2023-05-23T05:19:04;95540.41;;;19.03;69.83
6218;BME280;3142;48.206;11.550;2023-05-23T05:21:31;95540.13;;;19.00;70.49
6218;BME280;3142;48.206;11.550;2023-05-23T05:23:57;95537.50;;;19.05;70.02
6218;BME280;3142;48.206;11.550;2023-05-23T05:26:24;95542.03;;;19.09;70.20
6218;BME280;3142;48.206;11.550;2023-05-23T05:28:52;95544.44;;;19.11;70.73
6218;BME280;3142;48.206;11.550;2023-05-23T05:31:18;95532.22;;;19.10;70.15
6218;BME280;3142;48.206;11.550;2023-05-23T05:33:45;95542.34;;;19.18;70.08
6218;BME280;3142;48.206;11.550;2023-05-23T05:36:11;95542.13;;;19.24;70.19
6218;BME280;3142;48.206;11.550;2023-05-23T05:38:37;95547.22;;;19.36;70.47
6218;BME280;3142;48.206;11.550;2023-05-23T05:41:04;95557.59;;;19.43;69.89
6218;BME280;3142;48.206;11.550;2023-05-23T05:43:30;95561.88;;;19.49;69.91
6218;BME280;3142;48.206;11.550;2023-05-23T05:45:58;95559.22;;;19.49;69.51
6218;BME280;3142;48.206;11.550;2023-05-23T05:48:24;95558.69;;;19.52;69.71
6218;BME280;3142;48.206;11.550;2023-05-23T05:50:51;95557.41;;;19.60;69.56
6218;BME280;3142;48.206;11.550;2023-05-23T05:53:17;95562.75;;;19.70;69.38
6218;BME280;3142;48.206;11.550;2023-05-23T05:55:44;95563.06;;;19.78;68.87
6218;BME280;3142;48.206;11.550;2023-05-23T05:58:10;95559.63;;;19.78;68.97
6218;BME280;3142;48.206;11.550;2023-05-23T06:00:36;95567.59;;;19.78;69.04
6218;BME280;3142;48.206;11.550;2023-05-23T06:03:07;95556.69;;;19.79;68.99
6218;BME280;3142;48.206;11.550;2023-05-23T06:05:34;95556.44;;;19.81;69.02
6218;BME280;3142;48.206;11.550;2023-05-23T06:08:01;95557.53;;;19.90;69.06
6218;BME280;3142;48.206;11.550;2023-05-23T06:10:28;95560.72;;;19.97;69.37
6218;BME280;3142;48.206;11.550;2023-05-23T06:12:55;95549.56;;;20.00;69.07
6218;BME280;3142;48.206;11.550;2023-05-23T06:15:21;95556.78;;;20.05;68.92
6218;BME280;3142;48.206;11.550;2023-05-23T06:17:48;95567.13;;;20.06;68.88
6218;BME280;3142;48.206;11.550;2023-05-23T06:20:16;95562.34;;;20.08;68.86
6218;BME280;3142;48.206;11.550;2023-05-23T06:22:43;95560.22;;;20.05;68.61
6218;BME280;3142;48.206;11.550;2023-05-23T06:25:09;95557.56;;;20.05;69.09
6218;BME280;3142;48.206;11.550;2023-05-23T06:27:36;95562.88;;;20.10;69.13
6218;BME280;3142;48.206;11.550;2023-05-23T06:30:03;95564.75;;;20.15;69.10
6218;BME280;3142;48.206;11.550;2023-05-23T06:32:29;95561.28;;;20.15;68.62
6218;BME280;3142;48.206;11.550;2023-05-23T06:34:55;95560.50;;;20.19;69.34
6218;BME280;3142;48.206;11.550;2023-05-23T06:37:23;95571.94;;;20.25;68.80
6218;BME280;3142;48.206;11.550;2023-05-23T06:39:50;95574.09;;;20.33;69.15
6218;BME280;3142;48.206;11.550;2023-05-23T06:42:16;95575.41;;;20.40;68.67
6218;BME280;3142;48.206;11.550;2023-05-23T06:44:42;95578.91;;;20.46;68.22
6218;BME280;3142;48.206;11.550;2023-05-23T06:47:09;95568.53;;;20.55;68.27
6218;BME280;3142;48.206;11.550;2023-05-23T06:49:35;95578.09;;;20.56;68.30
6218;BME280;3142;48.206;11.550;2023-05-23T06:52:02;95579.19;;;20.60;68.11
6218;BME280;3142;48.206;11.550;2023-05-23T06:54:30;95579.19;;;20.50;68.31
6218;BME280;3142;48.206;11.550;2023-05-23T06:56:56;95580.78;;;20.51;68.08
6218;BME280;3142;48.206;11.550;2023-05-23T06:59:22;95590.63;;;20.60;68.09
6218;BME280;3142;48.206;11.550;2023-05-23T07:01:49;95586.09;;;20.66;67.61
6218;BME280;3142;48.206;11.550;2023-05-23T07:04:15;95582.66;;;20.70;67.62
6218;BME280;3142;48.206;11.550;2023-05-23T07:06:42;95593.25;;;20.81;67.46
6218;BME280;3142;48.206;11.550;2023-05-23T07:09:08;95587.16;;;20.80;67.41
6218;BME280;3142;48.206;11.550;2023-05-23T07:11:37;95591.13;;;20.83;66.99
6218;BME280;3142;48.206;11.550;2023-05-23T07:14:05;95587.69;;;20.77;67.21
6218;BME280;3142;48.206;11.550;2023-05-23T07:16:32;95592.50;;;20.70;67.16
6218;BME280;3142;48.206;11.550;2023-05-23T07:19:00;95594.59;;;20.63;68.00
6218;BME280;3142;48.206;11.550;2023-05-23T07:21:26;95598.34;;;20.72;67.34
6218;BME280;3142;48.206;11.550;2023-05-23T07:23:52;95611.09;;;20.85;66.91
6218;BME280;3142;48.206;11.550;2023-05-23T07:26:19;95602.84;;;20.87;67.09
6218;BME280;3142;48.206;11.550;2023-05-23T07:28:46;95607.66;;;20.85;66.91
6218;BME280;3142;48.206;11.550;2023-05-23T07:31:13;95604.19;;;20.74;67.24
6218;BME280;3142;48.206;11.550;2023-05-23T07:33:39;95599.66;;;20.69;67.61
6218;BME280;3142;48.206;11.550;2023-05-23T07:36:06;95600.72;;;20.68;67.88
6218;BME280;3142;48.206;11.550;2023-05-23T07:38:33;95603.13;;;20.60;68.11
6218;BME280;3142;48.206;11.550;2023-05-23T07:40:59;95602.59;;;20.58;68.47
6218;BME280;3142;48.206;11.550;2023-05-23T07:43:26;95598.03;;;20.53;68.35
6218;BME280;3142;48.206;11.550;2023-05-23T07:45:53;95598.31;;;20.47;68.59
6218;BME280;3142;48.206;11.550;2023-05-23T07:48:20;95591.94;;;20.58;68.87
6218;BME280;3142;48.206;11.550;2023-05-23T07:50:46;95597.81;;;20.75;68.43
6218;BME280;3142;48.206;11.550;2023-05-23T07:53:12;95601.53;;;20.84;68.12
6218;BME280;3142;48.206;11.550;2023-05-23T07:55:40;95602.03;;;20.81;68.15
6218;BME280;3142;48.206;11.550;2023-05-23T07:58:06;95608.19;;;20.72;68.25
6218;BME280;3142;48.206;11.550;2023-05-23T08:00:32;95612.94;;;20.69;68.33
6218;BME280;3142;48.206;11.550;2023-05-23T08:03:02;95611.09;;;20.70;68.37
6218;BME280;3142;48.206;11.550;2023-05-23T08:05:29;95610.56;;;20.63;67.93
6218;BME280;3142;48.206;11.550;2023-05-23T08:07:55;95607.09;;;20.57;67.93
6218;BME280;3142;48.206;11.550;2023-05-23T08:10:22;95613.75;;;20.60;68.28
6218;BME280;3142;48.206;11.550;2023-05-23T08:12:48;95610.84;;;20.72;68.34
6218;BME280;3142;48.206;11.550;2023-05-23T08:15:16;95612.16;;;20.84;67.55
6218;BME280;3142;48.206;11.550;2023-05-23T08:17:42;95613.75;;;20.85;67.60
6218;BME280;3142;48.206;11.550;2023-05-23T08:20:11;95613.75;;;20.75;67.83
6218;BME280;3142;48.206;11.550;2023-05-23T08:22:37;95619.06;;;20.75;67.97
6218;BME280;3142;48.206;11.550;2023-05-23T08:25:04;95617.75;;;20.73;67.62
6218;BME280;3142;48.206;11.550;2023-05-23T08:27:31;95618.25;;;20.80;67.53
6218;BME280;3142;48.206;11.550;2023-05-23T08:29:58;95615.63;;;20.85;67.50
6218;BME280;3142;48.206;11.550;2023-05-23T08:32:24;95619.63;;;20.87;67.46
6218;BME280;3142;48.206;11.550;2023-05-23T08:34:50;95621.47;;;20.92;67.29
6218;BME280;3142;48.206;11.550;2023-05-23T08:37:19;95630.25;;;20.92;67.24
6218;BME280;3142;48.206;11.550;2023-05-23T08:39:45;95629.44;;;20.92;67.44
6218;BME280;3142;48.206;11.550;2023-05-23T08:42:12;95632.09;;;21.07;66.46
6218;BME280;3142;48.206;11.550;2023-05-23T08:44:38;95626.78;;;21.07;65.81
6218;BME280;3142;48.206;11.550;2023-05-23T08:47:07;95630.75;;;21.10;66.01
6218;BME280;3142;48.206;11.550;2023-05-23T08:49:34;95630.78;;;21.05;66.37
6218;BME280;3142;48.206;11.550;2023-05-23T08:52:01;95633.19;;;21.11;66.28
6218;BME280;3142;48.206;11.550;2023-05-23T08:54:30;95636.63;;;21.12;65.73
6218;BME280;3142;48.206;11.550;2023-05-23T08:56:57;95632.63;;;21.19;65.63
6218;BME280;3142;48.206;11.550;2023-05-23T08:59:25;95639.81;;;21.29;65.47
6218;BME280;3142;48.206;11.550;2023-05-23T09:01:53;95637.69;;;21.31;65.41
6218;BME280;3142;48.206;11.550;2023-05-23T09:04:20;95641.66;;;21.23;65.91
6218;BME280;3142;48.206;11.550;2023-05-23T09:06:47;95644.06;;;21.20;65.64
6218;BME280;3142;48.206;11.550;2023-05-23T09:09:13;95647.50;;;21.10;66.24
6218;BME280;3142;48.206;11.550;2023-05-23T09:11:41;95639.00;;;21.08;66.42
6218;BME280;3142;48.206;11.550;2023-05-23T09:14:10;95641.41;;;21.10;65.95
6218;BME280;3142;48.206;11.550;2023-05-23T09:16:39;95635.56;;;21.18;65.89
6218;BME280;3142;48.206;11.550;2023-05-23T09:19:12;95639.81;;;21.29;65.16
6218;BME280;3142;48.206;11.550;2023-05-23T09:21:42;95636.06;;;21.45;65.04
6218;BME280;3142;48.206;11.550;2023-05-23T09:24:09;95646.69;;;21.55;64.56
6218;BME280;3142;48.206;11.550;2023-05-23T09:26:36;95650.16;;;21.51;64.36
6218;BME280;3142;48.206;11.550;2023-05-23T09:29:05;95649.09;;;21.47;64.58
6218;BME280;3142;48.206;11.550;2023-05-23T09:31:32;95649.09;;;21.47;64.84
6218;BME280;3142;48.206;11.550;2023-05-23T09:33:58;95649.13;;;21.42;63.74
6218;BME280;3142;48.206;11.550;2023-05-23T09:36:27;95651.03;;;21.26;64.24
6218;BME280;3142;48.206;11.550;2023-05-23T09:38:54;95654.44;;;21.16;65.07
6218;BME280;3142;48.206;11.550;2023-05-23T09:41:21;95653.09;;;21.09;65.25
6218;BME280;3142;48.206;11.550;2023-05-23T09:43:49;95654.72;;;21.05;65.57
6218;BME280;3142;48.206;11.550;2023-05-23T09:46:18;95648.88;;;21.03;65.46
6218;BME280;3142;48.206;11.550;2023-05-23T09:48:46;95649.94;;;21.02;65.91
6218;BME280;3142;48.206;11.550;2023-05-23T09:51:12;95657.38;;;20.99;65.71
6218;BME280;3142;48.206;11.550;2023-05-23T09:53:39;95656.88;;;20.97;65.84
6218;BME280;3142;48.206;11.550;2023-05-23T09:56:09;95654.19;;;20.92;65.87
6218;BME280;3142;48.206;11.550;2023-05-23T09:58:37;95650.19;;;20.90;66.20
6218;BME280;3142;48.206;11.550;2023-05-23T10:01:06;95653.91;;;20.94;66.06
6218;BME280;3142;48.206;11.550;2023-05-23T10:03:39;95651.78;;;20.91;66.05
6218;BME280;3142;48.206;11.550;2023-05-23T10:06:14;95651.00;;;20.85;66.32
6218;BME280;3142;48.206;11.550;2023-05-23T10:08:43;95646.47;;;20.86;66.08
6218;BME280;3142;48.206;11.550;2023-05-23T10:14:16;95657.66;;;21.13;65.00
6218;BME280;3142;48.206;11.550;2023-05-23T10:16:48;95647.78;;;21.19;64.69
6218;BME280;3142;48.206;11.550;2023-05-23T10:19:24;95651.25;;;21.24;65.04
6218;BME280;3142;48.206;11.550;2023-05-23T10:21:56;95649.69;;;21.28;64.83
6218;BME280;3142;48.206;11.550;2023-05-23T10:24:24;95648.84;;;21.43;64.91
6218;BME280;3142;48.206;11.550;2023-05-23T10:26:52;95641.38;;;21.50;64.61
6218;BME280;3142;48.206;11.550;2023-05-23T10:29:20;95649.09;;;21.47;65.14
6218;BME280;3142;48.206;11.550;2023-05-23T10:31:47;95645.38;;;21.38;64.63
6218;BME280;3142;48.206;11.550;2023-05-23T10:34:20;95641.69;;;21.28;64.96
6218;BME280;3142;48.206;11.550;2023-05-23T10:36:55;95633.69;;;21.13;64.91
6218;BME280;3142;48.206;11.550;2023-05-23T10:39:31;95633.19;;;21.11;65.32
6218;BME280;3142;48.206;11.550;2023-05-23T10:42:01;95628.84;;;21.51;64.41
6218;BME280;3142;48.206;11.550;2023-05-23T10:44:29;95623.88;;;22.58;61.33
6218;BME280;3142;48.206;11.550;2023-05-23T10:46:57;95621.69;;;23.33;59.99
6218;BME280;3142;48.206;11.550;2023-05-23T10:49:42;95616.44;;;24.00;56.50
6218;BME280;3142;48.206;11.550;2023-05-23T10:52:11;95622.97;;;24.50;53.65
6218;BME280;3142;48.206;11.550;2023-05-23T10:54:43;95621.06;;;24.89;53.61
6218;BME280;3142;48.206;11.550;2023-05-23T10:57:11;95618.09;;;24.90;51.10
6218;BME280;3142;48.206;11.550;2023-05-23T10:59:38;95620.59;;;24.68;52.56
6218;BME280;3142;48.206;11.550;2023-05-23T11:02:12;95618.94;;;24.53;52.57
6218;BME280;3142;48.206;11.550;2023-05-23T11:04:40;95620.28;;;24.88;50.84
6218;BME280;3142;48.206;11.550;2023-05-23T11:07:28;95613.78;;;24.75;51.10
6218;BME280;3142;48.206;11.550;2023-05-23T11:10:08;95613.06;;;25.21;51.12
6218;BME280;3142;48.206;11.550;2023-05-23T11:12:36;95623.97;;;25.11;50.85
6218;BME280;3142;48.206;11.550;2023-05-23T11:15:18;95617.13;;;24.67;52.00
6218;BME280;3142;48.206;11.550;2023-05-23T11:17:49;95603.75;;;25.00;50.15
6218;BME280;3142;48.206;11.550;2023-05-23T11:20:17;95599.59;;;25.40;49.81
6218;BME280;3142;48.206;11.550;2023-05-23T11:22:54;95605.34;;;25.33;50.96
6218;BME280;3142;48.206;11.550;2023-05-23T11:25:38;95612.63;;;25.00;50.86
6218;BME280;3142;48.206;11.550;2023-05-23T11:28:06;95604.75;;;24.71;50.95
6218;BME280;3142;48.206;11.550;2023-05-23T11:30:34;95598.53;;;24.38;52.30
6218;BME280;3142;48.206;11.550;2023-05-23T11:33:06;95603.34;;;23.99;53.53
6218;BME280;3142;48.206;11.550;2023-05-23T11:35:34;95599.25;;;24.63;52.45
6218;BME280;3142;48.206;11.550;2023-05-23T11:38:03;95598.41;;;24.48;52.93
6218;BME280;3142;48.206;11.550;2023-05-23T11:40:31;95602.00;;;24.39;53.42
6218;BME280;3142;48.206;11.550;2023-05-23T11:42:58;95596.78;;;24.29;52.97
6218;BME280;3142;48.206;11.550;2023-05-23T11:45:26;95598.03;;;24.36;52.68
6218;BME280;3142;48.206;11.550;2023-05-23T11:47:53;95599.41;;;24.71;51.95
6218;BME280;3142;48.206;11.550;2023-05-23T11:50:20;95590.97;;;24.97;50.98
6218;BME280;3142;48.206;11.550;2023-05-23T11:52:48;95594.00;;;24.90;51.13
6218;BME280;3142;48.206;11.550;2023-05-23T11:55:17;95589.34;;;24.82;52.11
6218;BME280;3142;48.206;11.550;2023-05-23T11:57:44;95597.31;;;24.49;51.61
6218;BME280;3142;48.206;11.550;2023-05-23T12:00:11;95591.44;;;24.29;52.44
6218;BME280;3142;48.206;11.550;2023-05-23T12:02:39;95588.38;;;24.40;51.24
6218;BME280;3142;48.206;11.550;2023-05-23T12:05:07;95594.63;;;24.49;52.04
6218;BME280;3142;48.206;11.550;2023-05-23T12:07:33;95588.09;;;24.74;52.22
6218;BME280;3142;48.206;11.550;2023-05-23T12:10:01;95581.63;;;24.94;51.81
6218;BME280;3142;48.206;11.550;2023-05-23T12:12:30;95583.00;;;25.10;49.11
6218;BME280;3142;48.206;11.550;2023-05-23T12:14:57;95583.38;;;25.18;49.12
6218;BME280;3142;48.206;11.550;2023-05-23T12:17:23;95592.00;;;24.82;50.62
6218;BME280;3142;48.206;11.550;2023-05-23T12:19:51;95589.78;;;24.70;51.38
6218;BME280;3142;48.206;11.550;2023-05-23T12:22:21;95594.56;;;24.36;52.24
6218;BME280;3142;48.206;11.550;2023-05-23T12:24:52;95602.56;;;23.74;53.95
6218;BME280;3142;48.206;11.550;2023-05-23T12:27:19;95608.31;;;23.62;54.35
6218;BME280;3142;48.206;11.550;2023-05-23T12:29:50;95604.84;;;23.62;54.89
6218;BME280;3142;48.206;11.550;2023-05-23T12:32:16;95603.97;;;23.90;55.55
6218;BME280;3142;48.206;11.550;2023-05-23T12:34:43;95597.81;;;24.14;54.63
6218;BME280;3142;48.206;11.550;2023-05-23T12:37:12;95603.91;;;24.38;54.32
6218;BME280;3142;48.206;11.550;2023-05-23T12:39:38;95606.78;;;24.61;53.47
6218;BME280;3142;48.206;11.550;2023-05-23T12:42:08;95590.72;;;24.61;52.21
6218;BME280;3142;48.206;11.550;2023-05-23T12:44:35;95603.47;;;24.31;52.58
6218;BME280;3142;48.206;11.550;2023-05-23T12:47:03;95608.91;;;24.02;53.04
6218;BME280;3142;48.206;11.550;2023-05-23T12:49:30;95607.72;;;23.89;53.30
6218;BME280;3142;48.206;11.550;2023-05-23T12:51:56;95613.56;;;23.73;54.25
6218;BME280;3142;48.206;11.550;2023-05-23T12:54:23;95607.66;;;23.94;54.08
6218;BME280;3142;48.206;11.550;2023-05-23T12:56:49;95608.50;;;24.14;54.26
6218;BME280;3142;48.206;11.550;2023-05-23T12:59:15;95608.28;;;24.29;54.13
6218;BME280;3142;48.206;11.550;2023-05-23T13:01:42;95607.09;;;24.40;54.13
6218;BME280;3142;48.206;11.550;2023-05-23T13:04:10;95604.19;;;24.56;54.48
6218;BME280;3142;48.206;11.550;2023-05-23T13:06:36;95597.47;;;24.58;54.55
6218;BME280;3142;48.206;11.550;2023-05-23T13:09:02;95597.16;;;24.60;54.34
6218;BME280;3142;48.206;11.550;2023-05-23T13:11:29;95595.88;;;24.57;53.98
6218;BME280;3142;48.206;11.550;2023-05-23T13:13:57;95605.13;;;24.46;53.06
6218;BME280;3142;48.206;11.550;2023-05-23T13:16:23;95597.34;;;24.07;52.72